map of KNCA home
KNCA - Airport
Location
City:  Jacksonville, North Carolina, United States
Name:New River MCAS (H)
Old (Alt.):McCutcheon Field
ICAO:KNCA
FAA LID:NCA

Details
Type:Airport (Airfield)
Use:Military
Latitude:3442'30"N (34.708433)
Longitude:7726'23"W (-77.439660)
Datum:WGS 1984
Elevation:26 ft (8 m)
Variation:9.76W (WMM2015v2 magnetic declination)
-0.01 annual change
Runways:2
Longest:5127 × 150 ft (1563 × 45.5 m), paved

Time
Time Zone:UTC-5 (DST-4)
Local Time:

Weather
METAR:KNCA 041356Z 35011G21KT 10SM BKN110 BKN180 11/08 A2998 RMK AO2 RAE38 SLP156 P0000 T01110078

Related Locations
Nearby:
Farthest:MQZ: 11725 mi / 18870 km
Margaret River [Margaret River Airport], WA, AU

Find:

   beyond  
but within

Other Information
Maps:
NOTAMs:
Links:
Sources:

  
  • flag of United States
  • flag of North Carolina
  

Airport Diagram

Airport diagram for KNCA

Airport diagram PDF from FAA

Sectional Chart

Flight Planning
at skyvector.com

Satellite Image

Google Maps Satellite view

 

Copyright © 2004-2019 Karl L. Swartz. All rights reserved.
The Great Circle Mapper name and logo are trademarks of the Great Circle Mapper.
All other trademarks mentioned herein belong to their respective owners.
Please see credits for attibutions and further copyright information.

  Follow gcmap on Facebook Follow gcmap on Twitter GCmap on LinkedIn

hCard Microformat

Geo Microformat